sensor_id;sensor_type;location;lat;lon;timestamp;pressure;altitude;pressure_sealevel;temperature;humidity
49825;BME280;35714;55.708;37.478;2023-03-23T00:01:21;99159.63;;;6.59;51.58
49825;BME280;35714;55.708;37.478;2023-03-23T00:03:49;99158.75;;;6.58;51.63
49825;BME280;35714;55.708;37.478;2023-03-23T00:06:17;99155.25;;;6.58;51.68
49825;BME280;35714;55.708;37.478;2023-03-23T00:08:45;99162.91;;;6.61;51.70
49825;BME280;35714;55.708;37.478;2023-03-23T00:11:21;99154.19;;;6.65;51.81
49825;BME280;35714;55.708;37.478;2023-03-23T00:13:48;99146.91;;;6.66;51.72
49825;BME280;35714;55.708;37.478;2023-03-23T00:16:21;99147.97;;;6.65;51.65
49825;BME280;35714;55.708;37.478;2023-03-23T00:18:55;99136.34;;;6.64;51.89
49825;BME280;35714;55.708;37.478;2023-03-23T00:21:23;99132.69;;;6.59;51.59
49825;BME280;35714;55.708;37.478;2023-03-23T00:23:51;99153.38;;;6.65;51.77
49825;BME280;35714;55.708;37.478;2023-03-23T00:26:17;99149.81;;;6.64;51.47
49825;BME280;35714;55.708;37.478;2023-03-23T00:28:44;99140.09;;;6.63;51.60
49825;BME280;35714;55.708;37.478;2023-03-23T00:31:12;99136.78;;;6.61;51.77
49825;BME280;35714;55.708;37.478;2023-03-23T00:33:38;99135.31;;;6.65;51.68
49825;BME280;35714;55.708;37.478;2023-03-23T00:36:10;99134.50;;;6.65;51.72
49825;BME280;35714;55.708;37.478;2023-03-23T00:38:37;99137.63;;;6.62;51.53
49825;BME280;35714;55.708;37.478;2023-03-23T00:41:03;99130.75;;;6.66;51.22
49825;BME280;35714;55.708;37.478;2023-03-23T00:43:29;99132.84;;;6.64;51.20
49825;BME280;35714;55.708;37.478;2023-03-23T00:45:56;99129.13;;;6.65;51.45
49825;BME280;35714;55.708;37.478;2023-03-23T00:48:23;99125.34;;;6.66;51.56
49825;BME280;35714;55.708;37.478;2023-03-23T00:50:51;99125.97;;;6.68;51.53
49825;BME280;35714;55.708;37.478;2023-03-23T00:53:18;99125.09;;;6.74;51.33
49825;BME280;35714;55.708;37.478;2023-03-23T00:55:45;99095.41;;;6.56;51.24
49825;BME280;35714;55.708;37.478;2023-03-23T00:58:12;99124.72;;;6.71;51.30
49825;BME280;35714;55.708;37.478;2023-03-23T01:00:39;99132.78;;;6.71;51.30
49825;BME280;35714;55.708;37.478;2023-03-23T01:03:05;99107.78;;;6.63;51.52
49825;BME280;35714;55.708;37.478;2023-03-23T01:05:35;99123.25;;;6.68;51.58
49825;BME280;35714;55.708;37.478;2023-03-23T01:08:02;99121.19;;;6.70;51.51
49825;BME280;35714;55.708;37.478;2023-03-23T01:10:30;99123.06;;;6.69;51.41
49825;BME280;35714;55.708;37.478;2023-03-23T01:12:59;99113.94;;;6.71;51.46
49825;BME280;35714;55.708;37.478;2023-03-23T01:15:26;99118.06;;;6.73;51.16
49825;BME280;35714;55.708;37.478;2023-03-23T01:17:52;99105.63;;;6.72;51.48
49825;BME280;35714;55.708;37.478;2023-03-23T01:20:18;99121.81;;;6.72;51.43
49825;BME280;35714;55.708;37.478;2023-03-23T01:22:44;99108.97;;;6.67;51.47
49825;BME280;35714;55.708;37.478;2023-03-23T01:25:11;99111.47;;;6.69;51.48
49825;BME280;35714;55.708;37.478;2023-03-23T01:27:38;99104.41;;;6.68;51.57
49825;BME280;35714;55.708;37.478;2023-03-23T01:30:06;99106.50;;;6.66;51.61
49825;BME280;35714;55.708;37.478;2023-03-23T01:32:33;99098.41;;;6.66;51.71
49825;BME280;35714;55.708;37.478;2023-03-23T01:34:58;99101.53;;;6.63;51.94
49825;BME280;35714;55.708;37.478;2023-03-23T01:37:24;99097.81;;;6.64;51.67
49825;BME280;35714;55.708;37.478;2023-03-23T01:39:53;99097.22;;;6.62;51.81
49825;BME280;35714;55.708;37.478;2023-03-23T01:42:31;99099.91;;;6.62;51.79
49825;BME280;35714;55.708;37.478;2023-03-23T01:51:05;99088.50;;;6.60;52.25
49825;BME280;35714;55.708;37.478;2023-03-23T01:53:37;99047.84;;;6.36;52.03
49825;BME280;35714;55.708;37.478;2023-03-23T01:56:06;99074.72;;;6.49;52.27
49825;BME280;35714;55.708;37.478;2023-03-23T01:58:34;99074.72;;;6.49;52.18
49825;BME280;35714;55.708;37.478;2023-03-23T02:01:04;99073.88;;;6.49;52.25
49825;BME280;35714;55.708;37.478;2023-03-23T02:03:34;99079.03;;;6.50;52.40
49825;BME280;35714;55.708;37.478;2023-03-23T02:06:00;99079.66;;;6.53;52.54
49825;BME280;35714;55.708;37.478;2023-03-23T02:08:49;99079.66;;;6.53;52.42
49825;BME280;35714;55.708;37.478;2023-03-23T02:11:18;99079.22;;;6.56;52.32
49825;BME280;35714;55.708;37.478;2023-03-23T02:13:46;99080.03;;;6.56;52.53
49825;BME280;35714;55.708;37.478;2023-03-23T02:27:31;99065.88;;;6.36;52.79
49825;BME280;35714;55.708;37.478;2023-03-23T02:35:43;99073.16;;;6.28;53.48
49825;BME280;35714;55.708;37.478;2023-03-23T02:38:20;99060.34;;;6.24;53.37
49825;BME280;35714;55.708;37.478;2023-03-23T02:40:49;99052.09;;;6.19;53.35
49825;BME280;35714;55.708;37.478;2023-03-23T02:43:20;99051.72;;;6.15;53.52
49825;BME280;35714;55.708;37.478;2023-03-23T02:45:50;99063.72;;;6.12;53.69
49825;BME280;35714;55.708;37.478;2023-03-23T02:48:20;99063.13;;;6.10;53.45
49825;BME280;35714;55.708;37.478;2023-03-23T02:50:51;99063.94;;;6.11;53.84
49825;BME280;35714;55.708;37.478;2023-03-23T02:53:21;99068.31;;;6.05;54.26
49825;BME280;35714;55.708;37.478;2023-03-23T02:55:51;99070.38;;;6.03;53.87
49825;BME280;35714;55.708;37.478;2023-03-23T02:58:19;99068.31;;;6.05;54.01
49825;BME280;35714;55.708;37.478;2023-03-23T03:00:45;99061.88;;;6.06;54.15
49825;BME280;35714;55.708;37.478;2023-03-23T03:03:16;99062.13;;;5.98;54.40
49825;BME280;35714;55.708;37.478;2023-03-23T03:05:56;99057.56;;;5.99;54.61
49825;BME280;35714;55.708;37.478;2023-03-23T03:11:04;99062.34;;;5.90;54.84
49825;BME280;35714;55.708;37.478;2023-03-23T03:16:41;99051.81;;;5.88;55.08
49825;BME280;35714;55.708;37.478;2023-03-23T03:19:35;99053.22;;;5.91;55.12
49825;BME280;35714;55.708;37.478;2023-03-23T03:22:03;99057.22;;;5.82;55.27
49825;BME280;35714;55.708;37.478;2023-03-23T03:24:38;99058.69;;;5.77;55.43
49825;BME280;35714;55.708;37.478;2023-03-23T03:27:11;99065.50;;;5.80;55.67
49825;BME280;35714;55.708;37.478;2023-03-23T03:29:49;99053.94;;;5.73;55.87
49825;BME280;35714;55.708;37.478;2023-03-23T03:32:28;99053.28;;;5.77;55.77
49825;BME280;35714;55.708;37.478;2023-03-23T03:34:59;99047.31;;;5.69;55.79
49825;BME280;35714;55.708;37.478;2023-03-23T03:37:26;99048.59;;;5.59;56.29
49825;BME280;35714;55.708;37.478;2023-03-23T03:39:52;99039.50;;;5.54;56.11
49825;BME280;35714;55.708;37.478;2023-03-23T03:42:18;99050.28;;;5.54;56.65
49825;BME280;35714;55.708;37.478;2023-03-23T03:44:44;99045.13;;;5.46;56.66
49825;BME280;35714;55.708;37.478;2023-03-23T03:47:10;99036.25;;;5.38;56.73
49825;BME280;35714;55.708;37.478;2023-03-23T03:49:36;99029.22;;;5.31;56.95
49825;BME280;35714;55.708;37.478;2023-03-23T03:52:02;99040.19;;;5.29;57.23
49825;BME280;35714;55.708;37.478;2023-03-23T03:54:38;99037.09;;;5.26;57.60
49825;BME280;35714;55.708;37.478;2023-03-23T03:57:05;99029.25;;;5.24;57.90
49825;BME280;35714;55.708;37.478;2023-03-23T03:59:50;99032.97;;;5.23;57.91
49825;BME280;35714;55.708;37.478;2023-03-23T04:02:34;99034.03;;;5.22;58.30
49825;BME280;35714;55.708;37.478;2023-03-23T04:05:00;99029.47;;;5.22;58.44
49825;BME280;35714;55.708;37.478;2023-03-23T04:07:30;99049.53;;;5.13;58.76
49825;BME280;35714;55.708;37.478;2023-03-23T04:09:56;99046.59;;;5.28;58.53
49825;BME280;35714;55.708;37.478;2023-03-23T04:12:22;99033.38;;;5.20;58.74
49825;BME280;35714;55.708;37.478;2023-03-23T04:14:57;99027.16;;;5.33;58.50
49825;BME280;35714;55.708;37.478;2023-03-23T04:17:31;99023.03;;;5.30;58.90
49825;BME280;35714;55.708;37.478;2023-03-23T04:19:57;99022.63;;;5.33;58.79
49825;BME280;35714;55.708;37.478;2023-03-23T04:22:24;99010.19;;;5.32;58.82
49825;BME280;35714;55.708;37.478;2023-03-23T04:24:57;99019.28;;;5.31;58.87
49825;BME280;35714;55.708;37.478;2023-03-23T04:27:26;99020.31;;;5.37;58.65
49825;BME280;35714;55.708;37.478;2023-03-23T04:29:57;99028.56;;;5.42;58.81
49825;BME280;35714;55.708;37.478;2023-03-23T04:32:42;99020.50;;;5.49;58.61
49825;BME280;35714;55.708;37.478;2023-03-23T04:35:13;99027.53;;;5.50;58.84
49825;BME280;35714;55.708;37.478;2023-03-23T04:37:48;99025.69;;;5.50;58.62
49825;BME280;35714;55.708;37.478;2023-03-23T04:40:17;99032.91;;;5.50;58.75
49825;BME280;35714;55.708;37.478;2023-03-23T04:42:51;99022.09;;;5.56;58.91
49825;BME280;35714;55.708;37.478;2023-03-23T04:45:40;99019.63;;;5.62;58.70
49825;BME280;35714;55.708;37.478;2023-03-23T04:48:11;99021.47;;;5.68;58.58
49825;BME280;35714;55.708;37.478;2023-03-23T04:50:52;99032.63;;;5.71;58.55
49825;BME280;35714;55.708;37.478;2023-03-23T04:53:23;99030.97;;;5.77;58.54
49825;BME280;35714;55.708;37.478;2023-03-23T04:55:49;99019.97;;;5.78;58.38
49825;BME280;35714;55.708;37.478;2023-03-23T04:58:17;99019.09;;;5.91;57.96
49825;BME280;35714;55.708;37.478;2023-03-23T05:01:09;99011.03;;;5.85;58.18
49825;BME280;35714;55.708;37.478;2023-03-23T05:03:44;99020.09;;;5.97;58.00
49825;BME280;35714;55.708;37.478;2023-03-23T05:06:10;99026.13;;;5.99;58.14
49825;BME280;35714;55.708;37.478;2023-03-23T05:08:36;99032.09;;;6.01;57.92
49825;BME280;35714;55.708;37.478;2023-03-23T05:11:06;99026.09;;;6.06;57.86
49825;BME280;35714;55.708;37.478;2023-03-23T05:13:36;99031.41;;;6.12;57.56
49825;BME280;35714;55.708;37.478;2023-03-23T05:16:05;99032.66;;;6.17;57.78
49825;BME280;35714;55.708;37.478;2023-03-23T05:18:33;99035.69;;;6.27;57.65
49825;BME280;35714;55.708;37.478;2023-03-23T05:21:02;99032.13;;;6.33;57.23
49825;BME280;35714;55.708;37.478;2023-03-23T05:23:32;99031.25;;;6.39;57.15
49825;BME280;35714;55.708;37.478;2023-03-23T05:26:05;99031.41;;;6.44;57.10
49825;BME280;35714;55.708;37.478;2023-03-23T05:28:32;99038.63;;;6.50;56.87
49825;BME280;35714;55.708;37.478;2023-03-23T05:31:06;99037.38;;;6.53;57.06
49825;BME280;35714;55.708;37.478;2023-03-23T05:33:33;99030.31;;;6.59;56.80
49825;BME280;35714;55.708;37.478;2023-03-23T05:36:19;99051.00;;;6.65;56.50
49825;BME280;35714;55.708;37.478;2023-03-23T05:39:03;99031.06;;;6.66;56.44
49825;BME280;35714;55.708;37.478;2023-03-23T05:41:47;99040.97;;;6.72;56.34
49825;BME280;35714;55.708;37.478;2023-03-23T05:44:13;99032.50;;;6.68;56.35
49825;BME280;35714;55.708;37.478;2023-03-23T05:46:46;99034.72;;;6.78;56.15
49825;BME280;35714;55.708;37.478;2023-03-23T05:49:14;99044.16;;;6.88;55.97
49825;BME280;35714;55.708;37.478;2023-03-23T05:51:44;99044.47;;;6.98;55.62
49825;BME280;35714;55.708;37.478;2023-03-23T05:54:13;99039.88;;;7.05;55.33
49825;BME280;35714;55.708;37.478;2023-03-23T05:56:40;99049.31;;;7.14;55.18
49825;BME280;35714;55.708;37.478;2023-03-23T05:59:35;99033.06;;;7.21;55.23
49825;BME280;35714;55.708;37.478;2023-03-23T06:02:03;99040.75;;;7.43;54.91
49825;BME280;35714;55.708;37.478;2023-03-23T06:04:29;99033.47;;;7.62;54.26
49825;BME280;35714;55.708;37.478;2023-03-23T06:07:05;99044.41;;;7.85;53.73
49825;BME280;35714;55.708;37.478;2023-03-23T06:09:31;99033.38;;;8.05;53.42
49825;BME280;35714;55.708;37.478;2023-03-23T06:12:06;99017.94;;;8.24;52.98
49825;BME280;35714;55.708;37.478;2023-03-23T06:14:47;99016.41;;;8.71;52.80
49825;BME280;35714;55.708;37.478;2023-03-23T06:17:15;99022.31;;;9.15;51.77
49825;BME280;35714;55.708;37.478;2023-03-23T06:19:43;99023.72;;;9.53;50.06
49825;BME280;35714;55.708;37.478;2023-03-23T06:22:13;99014.00;;;9.81;50.27
49825;BME280;35714;55.708;37.478;2023-03-23T06:25:14;99026.47;;;10.22;48.86
49825;BME280;35714;55.708;37.478;2023-03-23T06:27:42;99024.19;;;10.60;46.88
49825;BME280;35714;55.708;37.478;2023-03-23T06:30:10;99028.59;;;10.83;46.70
49825;BME280;35714;55.708;37.478;2023-03-23T06:32:37;99028.13;;;11.03;46.19
49825;BME280;35714;55.708;37.478;2023-03-23T06:35:08;99024.66;;;11.25;45.73
49825;BME280;35714;55.708;37.478;2023-03-23T06:37:55;99018.50;;;11.51;45.07
49825;BME280;35714;55.708;37.478;2023-03-23T06:40:34;99028.25;;;11.91;44.52
49825;BME280;35714;55.708;37.478;2023-03-23T06:43:01;99018.38;;;12.30;43.37
49825;BME280;35714;55.708;37.478;2023-03-23T06:45:46;99030.56;;;12.54;42.37
49825;BME280;35714;55.708;37.478;2023-03-23T06:48:35;99015.03;;;12.82;41.51
49825;BME280;35714;55.708;37.478;2023-03-23T06:51:01;99013.28;;;13.03;40.71
49825;BME280;35714;55.708;37.478;2023-03-23T06:53:28;99012.34;;;13.25;40.48
49825;BME280;35714;55.708;37.478;2023-03-23T06:55:56;99014.94;;;13.47;40.30
49825;BME280;35714;55.708;37.478;2023-03-23T06:58:22;99009.66;;;13.78;39.68
49825;BME280;35714;55.708;37.478;2023-03-23T07:00:54;99013.84;;;14.01;39.05
49825;BME280;35714;55.708;37.478;2023-03-23T07:03:23;99017.72;;;14.31;37.77
49825;BME280;35714;55.708;37.478;2023-03-23T07:05:49;99012.00;;;14.37;37.71
49825;BME280;35714;55.708;37.478;2023-03-23T07:08:18;98998.41;;;14.53;37.51
49825;BME280;35714;55.708;37.478;2023-03-23T07:10:51;99006.06;;;14.66;37.61
49825;BME280;35714;55.708;37.478;2023-03-23T07:13:20;98994.63;;;14.95;36.77
49825;BME280;35714;55.708;37.478;2023-03-23T07:15:50;99002.69;;;15.46;35.72
49825;BME280;35714;55.708;37.478;2023-03-23T07:18:23;98998.81;;;15.63;35.03
49825;BME280;35714;55.708;37.478;2023-03-23T07:21:09;99007.00;;;15.78;34.26
49825;BME280;35714;55.708;37.478;2023-03-23T07:23:35;99007.03;;;15.58;34.67
49825;BME280;35714;55.708;37.478;2023-03-23T07:26:07;99017.94;;;15.68;34.02
49825;BME280;35714;55.708;37.478;2023-03-23T07:28:38;98986.31;;;15.41;33.98
49825;BME280;35714;55.708;37.478;2023-03-23T07:31:16;98993.97;;;15.44;34.66
49825;BME280;35714;55.708;37.478;2023-03-23T07:33:42;99012.50;;;15.58;34.53
49825;BME280;35714;55.708;37.478;2023-03-23T07:36:10;98993.63;;;15.56;34.67
49825;BME280;35714;55.708;37.478;2023-03-23T07:38:36;99004.19;;;15.94;33.51
49825;BME280;35714;55.708;37.478;2023-03-23T07:41:02;99008.78;;;16.09;32.83
49825;BME280;35714;55.708;37.478;2023-03-23T07:43:30;99012.47;;;15.78;32.83
49825;BME280;35714;55.708;37.478;2023-03-23T07:45:58;99009.16;;;15.86;32.24
49825;BME280;35714;55.708;37.478;2023-03-23T07:48:33;98990.06;;;15.61;33.13
49825;BME280;35714;55.708;37.478;2023-03-23T07:50:59;98987.13;;;15.52;33.59
49825;BME280;35714;55.708;37.478;2023-03-23T07:53:27;98979.97;;;15.61;32.66
49825;BME280;35714;55.708;37.478;2023-03-23T07:56:02;98970.94;;;15.66;32.65
49825;BME280;35714;55.708;37.478;2023-03-23T07:58:49;98974.94;;;15.89;32.31
49825;BME280;35714;55.708;37.478;2023-03-23T08:01:15;98975.22;;;15.87;32.00
49825;BME280;35714;55.708;37.478;2023-03-23T08:03:48;98968.66;;;15.88;31.98
49825;BME280;35714;55.708;37.478;2023-03-23T08:06:36;98968.81;;;16.13;31.37
49825;BME280;35714;55.708;37.478;2023-03-23T08:09:22;98972.91;;;16.15;31.22
49825;BME280;35714;55.708;37.478;2023-03-23T08:12:03;98982.84;;;16.01;31.70
49825;BME280;35714;55.708;37.478;2023-03-23T08:14:49;98989.06;;;16.12;31.48
49825;BME280;35714;55.708;37.478;2023-03-23T08:17:28;98982.72;;;16.21;30.61
49825;BME280;35714;55.708;37.478;2023-03-23T08:20:06;98974.44;;;16.32;30.64
49825;BME280;35714;55.708;37.478;2023-03-23T08:22:55;98971.81;;;16.56;30.36
49825;BME280;35714;55.708;37.478;2023-03-23T08:25:36;98967.41;;;16.55;30.44
49825;BME280;35714;55.708;37.478;2023-03-23T08:28:22;98975.13;;;16.87;30.23
49825;BME280;35714;55.708;37.478;2023-03-23T08:30:57;98954.53;;;17.19;29.81
49825;BME280;35714;55.708;37.478;2023-03-23T08:33:36;98955.97;;;17.41;30.12
49825;BME280;35714;55.708;37.478;2023-03-23T08:36:28;98957.34;;;18.06;28.84
49825;BME280;35714;55.708;37.478;2023-03-23T08:39:23;98958.56;;;18.70;27.70
49825;BME280;35714;55.708;37.478;2023-03-23T08:42:11;98942.34;;;18.88;27.43
49825;BME280;35714;55.708;37.478;2023-03-23T08:44:42;98946.41;;;19.37;26.75
49825;BME280;35714;55.708;37.478;2023-03-23T08:47:36;98934.75;;;19.96;25.45
49825;BME280;35714;55.708;37.478;2023-03-23T08:50:29;98937.28;;;20.06;25.15
49825;BME280;35714;55.708;37.478;2023-03-23T08:53:14;98930.22;;;20.14;25.49
49825;BME280;35714;55.708;37.478;2023-03-23T08:55:48;98919.28;;;20.23;24.97
49825;BME280;35714;55.708;37.478;2023-03-23T08:58:41;98909.00;;;20.37;25.59
49825;BME280;35714;55.708;37.478;2023-03-23T09:01:33;98912.50;;;20.97;24.59
49825;BME280;35714;55.708;37.478;2023-03-23T09:04:22;98891.38;;;21.23;23.82
49825;BME280;35714;55.708;37.478;2023-03-23T09:06:57;98895.88;;;21.59;23.37
49825;BME280;35714;55.708;37.478;2023-03-23T09:09:23;98891.00;;;21.56;23.32
49825;BME280;35714;55.708;37.478;2023-03-23T09:11:49;98881.97;;;21.82;23.03
49825;BME280;35714;55.708;37.478;2023-03-23T09:14:15;98895.13;;;22.03;22.87
49825;BME280;35714;55.708;37.478;2023-03-23T09:16:41;98883.44;;;22.23;22.36
49825;BME280;35714;55.708;37.478;2023-03-23T09:19:06;98885.22;;;22.19;22.07
49825;BME280;35714;55.708;37.478;2023-03-23T09:21:34;98883.63;;;22.36;21.54
49825;BME280;35714;55.708;37.478;2023-03-23T09:23:59;98881.50;;;22.06;22.52
49825;BME280;35714;55.708;37.478;2023-03-23T09:26:27;98870.72;;;22.57;21.68
49825;BME280;35714;55.708;37.478;2023-03-23T09:28:53;98874.94;;;22.63;21.67
49825;BME280;35714;55.708;37.478;2023-03-23T09:31:19;98879.66;;;22.72;21.84
49825;BME280;35714;55.708;37.478;2023-03-23T09:33:48;98893.09;;;22.82;21.24
49825;BME280;35714;55.708;37.478;2023-03-23T09:36:18;98871.66;;;22.79;21.54
49825;BME280;35714;55.708;37.478;2023-03-23T09:38:47;98869.94;;;23.04;21.24
49825;BME280;35714;55.708;37.478;2023-03-23T09:46:50;98845.31;;;23.50;20.20
49825;BME280;35714;55.708;37.478;2023-03-23T09:49:33;98835.19;;;22.85;20.71
49825;BME280;35714;55.708;37.478;2023-03-23T09:52:17;98851.44;;;22.87;20.92
49825;BME280;35714;55.708;37.478;2023-03-23T09:57:43;98843.47;;;22.94;20.83
49825;BME280;35714;55.708;37.478;2023-03-23T10:00:16;98833.31;;;23.16;20.51
49825;BME280;35714;55.708;37.478;2023-03-23T10:02:57;98863.13;;;23.40;20.03
49825;BME280;35714;55.708;37.478;2023-03-23T10:05:33;98821.63;;;23.40;20.19
49825;BME280;35714;55.708;37.478;2023-03-23T10:08:01;98827.53;;;23.30;20.12
49825;BME280;35714;55.708;37.478;2023-03-23T10:13:27;98817.78;;;23.74;19.77
49825;BME280;35714;55.708;37.478;2023-03-23T10:15:56;98826.69;;;23.38;20.33
49825;BME280;35714;55.708;37.478;2023-03-23T10:18:46;98827.34;;;23.86;19.45
49825;BME280;35714;55.708;37.478;2023-03-23T10:21:18;98810.13;;;23.29;20.16
49825;BME280;35714;55.708;37.478;2023-03-23T10:24:04;98817.16;;;23.27;20.03
49825;BME280;35714;55.708;37.478;2023-03-23T10:29:31;98810.41;;;23.36;19.90
49825;BME280;35714;55.708;37.478;2023-03-23T10:32:08;98803.13;;;23.53;19.73
49825;BME280;35714;55.708;37.478;2023-03-23T10:34:42;98808.81;;;23.77;19.21
49825;BME280;35714;55.708;37.478;2023-03-23T10:39:58;98803.66;;;24.09;18.92
49825;BME280;35714;55.708;37.478;2023-03-23T10:42:33;98812.72;;;23.76;19.43
49825;BME280;35714;55.708;37.478;2023-03-23T10:45:00;98810.31;;;23.96;19.31
49825;BME280;35714;55.708;37.478;2023-03-23T10:47:26;98811.78;;;23.72;19.48
49825;BME280;35714;55.708;37.478;2023-03-23T10:52:49;98808.88;;;24.11;19.26
49825;BME280;35714;55.708;37.478;2023-03-23T10:55:18;98805.84;;;23.83;18.87
49825;BME280;35714;55.708;37.478;2023-03-23T10:58:08;98810.16;;;23.71;19.27
49825;BME280;35714;55.708;37.478;2023-03-23T11:00:32;98808.97;;;24.02;18.54
49825;BME280;35714;55.708;37.478;2023-03-23T11:03:04;98807.44;;;23.63;19.40
49825;BME280;35714;55.708;37.478;2023-03-23T11:05:55;98810.72;;;23.86;19.18
49825;BME280;35714;55.708;37.478;2023-03-23T11:08:25;98810.22;;;23.63;19.02
49825;BME280;35714;55.708;37.478;2023-03-23T11:11:07;98807.56;;;23.24;19.67
49825;BME280;35714;55.708;37.478;2023-03-23T11:13:44;98817.53;;;23.07;19.87
49825;BME280;35714;55.708;37.478;2023-03-23T11:16:26;98787.78;;;23.04;19.97
49825;BME280;35714;55.708;37.478;2023-03-23T11:18:53;98805.81;;;23.40;19.44
49825;BME280;35714;55.708;37.478;2023-03-23T11:21:21;98796.94;;;23.56;19.37
49825;BME280;35714;55.708;37.478;2023-03-23T11:23:57;98808.00;;;23.56;19.21
49825;BME280;35714;55.708;37.478;2023-03-23T11:26:32;98799.97;;;23.12;19.79
49825;BME280;35714;55.708;37.478;2023-03-23T11:29:09;98812.16;;;22.73;20.11
49825;BME280;35714;55.708;37.478;2023-03-23T11:36:41;98793.59;;;20.49;22.80
49825;BME280;35714;55.708;37.478;2023-03-23T11:39:23;98804.47;;;20.00;23.64
49825;BME280;35714;55.708;37.478;2023-03-23T11:41:49;98799.78;;;19.28;24.36
49825;BME280;35714;55.708;37.478;2023-03-23T11:44:15;98806.00;;;18.78;25.40
49825;BME280;35714;55.708;37.478;2023-03-23T11:47:02;98809.91;;;18.30;26.29
49825;BME280;35714;55.708;37.478;2023-03-23T11:49:41;98816.28;;;17.74;26.75
49825;BME280;35714;55.708;37.478;2023-03-23T11:52:20;98812.78;;;17.49;27.47
49825;BME280;35714;55.708;37.478;2023-03-23T11:57:43;98804.91;;;17.23;27.74
49825;BME280;35714;55.708;37.478;2023-03-23T12:00:18;98806.09;;;17.17;28.04
49825;BME280;35714;55.708;37.478;2023-03-23T12:02:55;98808.94;;;17.07;28.50
49825;BME280;35714;55.708;37.478;2023-03-23T12:06:03;98789.44;;;16.65;28.81
49825;BME280;35714;55.708;37.478;2023-03-23T12:08:37;98796.81;;;16.65;29.24
49825;BME280;35714;55.708;37.478;2023-03-23T12:14:21;98793.06;;;17.09;28.76
49825;BME280;35714;55.708;37.478;2023-03-23T12:17:04;98800.41;;;17.33;28.70
49825;BME280;35714;55.708;37.478;2023-03-23T12:27:58;98791.28;;;17.75;28.23
49825;BME280;35714;55.708;37.478;2023-03-23T12:41:16;98767.63;;;16.31;30.25
49825;BME280;35714;55.708;37.478;2023-03-23T12:43:58;98764.06;;;16.01;30.71
49825;BME280;35714;55.708;37.478;2023-03-23T12:49:50;98757.69;;;15.76;31.62
49825;BME280;35714;55.708;37.478;2023-03-23T12:52:32;98773.03;;;15.77;31.65
49825;BME280;35714;55.708;37.478;2023-03-23T12:57:39;98758.03;;;15.25;32.39
49825;BME280;35714;55.708;37.478;2023-03-23T13:00:28;98754.81;;;15.18;32.70
49825;BME280;35714;55.708;37.478;2023-03-23T13:03:15;98747.50;;;15.03;32.99
49825;BME280;35714;55.708;37.478;2023-03-23T13:05:46;98744.81;;;14.92;33.07
49825;BME280;35714;55.708;37.478;2023-03-23T13:08:32;98744.25;;;15.01;33.15
49825;BME280;35714;55.708;37.478;2023-03-23T13:11:03;98744.72;;;15.13;33.14
49825;BME280;35714;55.708;37.478;2023-03-23T13:19:51;98737.69;;;15.46;32.06
49825;BME280;35714;55.708;37.478;2023-03-23T13:22:37;98723.31;;;15.30;32.46
49825;BME280;35714;55.708;37.478;2023-03-23T13:25:15;98743.34;;;15.10;32.81
49825;BME280;35714;55.708;37.478;2023-03-23T13:27:43;98733.09;;;14.92;33.32
49825;BME280;35714;55.708;37.478;2023-03-23T13:30:21;98739.97;;;14.84;33.29
49825;BME280;35714;55.708;37.478;2023-03-23T13:32:48;98707.06;;;14.44;34.02
49825;BME280;35714;55.708;37.478;2023-03-23T13:35:17;98733.81;;;14.27;34.49
49825;BME280;35714;55.708;37.478;2023-03-23T13:37:48;98726.78;;;14.11;34.77
49825;BME280;35714;55.708;37.478;2023-03-23T13:40:24;98735.50;;;14.07;35.04
49825;BME280;35714;55.708;37.478;2023-03-23T13:42:57;98724.34;;;13.94;35.15
49825;BME280;35714;55.708;37.478;2023-03-23T13:45:42;98724.38;;;13.83;35.42
49825;BME280;35714;55.708;37.478;2023-03-23T13:50:53;98723.56;;;13.78;35.80
49825;BME280;35714;55.708;37.478;2023-03-23T13:53:28;98723.00;;;13.76;35.88
49825;BME280;35714;55.708;37.478;2023-03-23T13:58:51;98726.81;;;13.80;35.77
49825;BME280;35714;55.708;37.478;2023-03-23T14:01:34;98717.81;;;13.69;36.28
49825;BME280;35714;55.708;37.478;2023-03-23T14:04:04;98715.38;;;13.67;36.32
49825;BME280;35714;55.708;37.478;2023-03-23T14:06:35;98710.47;;;13.54;36.44
49825;BME280;35714;55.708;37.478;2023-03-23T14:09:12;98719.72;;;13.53;36.70
49825;BME280;35714;55.708;37.478;2023-03-23T14:11:48;98715.63;;;13.40;37.06
49825;BME280;35714;55.708;37.478;2023-03-23T14:14:23;98704.44;;;13.21;37.62
49825;BME280;35714;55.708;37.478;2023-03-23T14:16:50;98696.53;;;13.14;37.22
49825;BME280;35714;55.708;37.478;2023-03-23T14:19:23;98702.25;;;13.13;38.03
49825;BME280;35714;55.708;37.478;2023-03-23T14:22:01;98710.69;;;13.11;38.01
49825;BME280;35714;55.708;37.478;2023-03-23T14:24:32;98692.22;;;13.34;37.73
49825;BME280;35714;55.708;37.478;2023-03-23T14:27:21;98691.66;;;13.42;37.85
49825;BME280;35714;55.708;37.478;2023-03-23T14:29:58;98688.66;;;13.44;37.63
49825;BME280;35714;55.708;37.478;2023-03-23T14:32:25;98683.78;;;13.41;37.82
49825;BME280;35714;55.708;37.478;2023-03-23T14:34:53;98681.84;;;13.36;38.01
49825;BME280;35714;55.708;37.478;2023-03-23T14:37:20;98683.50;;;13.37;37.96
49825;BME280;35714;55.708;37.478;2023-03-23T14:39:52;98676.66;;;13.29;38.16
49825;BME280;35714;55.708;37.478;2023-03-23T14:42:23;98686.47;;;13.25;38.23
49825;BME280;35714;55.708;37.478;2023-03-23T14:44:51;98700.59;;;13.17;38.40
49825;BME280;35714;55.708;37.478;2023-03-23T14:47:32;98686.41;;;13.05;38.78
49825;BME280;35714;55.708;37.478;2023-03-23T14:50:00;98684.22;;;12.96;38.99
49825;BME280;35714;55.708;37.478;2023-03-23T14:52:32;98678.78;;;12.86;39.05
49825;BME280;35714;55.708;37.478;2023-03-23T14:55:20;98675.53;;;12.94;39.17
49825;BME280;35714;55.708;37.478;2023-03-23T14:57:47;98684.22;;;12.86;39.32
49825;BME280;35714;55.708;37.478;2023-03-23T15:00:14;98677.63;;;12.67;39.63
49825;BME280;35714;55.708;37.478;2023-03-23T15:02:49;98674.63;;;12.58;40.22